Time,TemperatureF,DewpointF,PressureIn,WindDirection,WindDirectionDegrees,WindSpeedMPH,WindSpeedGustMPH,Humidity,HourlyPrecipIn,Conditions,Clouds,dailyrainin,SolarRadiationWatts/m^2,SoftwareType,DateUTC
2013-02-16 00:21:00,28.0,16.0,-100.00,East,90,5.0,10.0,60,0.00,,,0.00,0.000000,,2013-02-16 07:21:00,
2013-02-16 00:31:00,28.0,16.0,-100.00,East,90,5.0,10.0,60,0.00,,,0.00,0.000000,,2013-02-16 07:31:00,
2013-02-16 00:42:00,28.0,16.0,-100.00,East,90,5.0,10.0,60,0.00,,,0.00,0.000000,,2013-02-16 07:42:00,
2013-02-16 00:52:00,28.0,16.0,-100.00,East,90,5.0,10.0,60,0.00,,,0.00,0.000000,,2013-02-16 07:52:00,
2013-02-16 01:21:00,27.0,18.0,-100.00,East,93,1.0,7.0,68,0.00,,,0.00,0.000000,,2013-02-16 08:21:00,
2013-02-16 01:31:00,27.0,18.0,-100.00,East,93,1.0,7.0,68,0.00,,,0.00,0.000000,,2013-02-16 08:31:00,
2013-02-16 01:41:00,27.0,18.0,-100.00,East,93,1.0,7.0,68,0.00,,,0.00,0.000000,,2013-02-16 08:41:00,
2013-02-16 01:52:00,27.0,18.0,-100.00,East,93,1.0,7.0,68,0.00,,,0.00,0.000000,,2013-02-16 08:52:00,
2013-02-16 02:21:00,24.0,14.0,-100.00,ENE,69,2.0,8.0,64,0.00,,,0.00,0.000000,,2013-02-16 09:21:00,
2013-02-16 02:31:00,24.0,14.0,-100.00,ENE,69,2.0,8.0,64,0.00,,,0.00,0.000000,,2013-02-16 09:31:00,
2013-02-16 02:42:00,24.0,14.0,-100.00,ENE,69,2.0,8.0,64,0.00,,,0.00,0.000000,,2013-02-16 09:42:00,
2013-02-16 02:51:00,24.0,14.0,-100.00,ENE,69,2.0,8.0,64,0.00,,,0.00,0.000000,,2013-02-16 09:51:00,
2013-02-16 03:21:00,23.0,12.0,-100.00,East,85,3.0,4.0,63,0.00,,,0.00,0.000000,,2013-02-16 10:21:00,
2013-02-16 03:31:00,23.0,12.0,-100.00,East,85,3.0,4.0,63,0.00,,,0.00,0.000000,,2013-02-16 10:31:00,
2013-02-16 03:41:00,23.0,12.0,-100.00,East,85,3.0,4.0,63,0.00,,,0.00,0.000000,,2013-02-16 10:41:00,
2013-02-16 03:51:00,23.0,12.0,-100.00,East,85,3.0,4.0,63,0.00,,,0.00,0.000000,,2013-02-16 10:51:00,
2013-02-16 04:22:00,23.0,13.0,-100.00,NE,45,0.0,7.0,65,0.00,,,0.00,0.000000,,2013-02-16 11:22:00,
2013-02-16 04:31:00,23.0,13.0,-100.00,NE,45,0.0,7.0,65,0.00,,,0.00,0.000000,,2013-02-16 11:31:00,
2013-02-16 04:42:00,23.0,13.0,-100.00,NE,45,0.0,7.0,65,0.00,,,0.00,0.000000,,2013-02-16 11:42:00,
2013-02-16 04:52:00,23.0,13.0,-100.00,NE,45,0.0,7.0,65,0.00,,,0.00,0.000000,,2013-02-16 11:52:00,
2013-02-16 05:22:00,21.0,11.0,-100.00,East,92,3.0,7.0,66,0.00,,,0.00,0.000000,,2013-02-16 12:22:00,
2013-02-16 05:32:00,21.0,11.0,-100.00,East,92,3.0,7.0,66,0.00,,,0.00,0.000000,,2013-02-16 12:32:00,
2013-02-16 05:42:00,21.0,11.0,-100.00,East,92,3.0,7.0,66,0.00,,,0.00,0.000000,,2013-02-16 12:42:00,
2013-02-16 05:52:00,21.0,11.0,-100.00,East,92,3.0,7.0,66,0.00,,,0.00,0.000000,,2013-02-16 12:52:00,
2013-02-16 06:21:00,21.0,13.0,-100.00,East,95,4.0,8.0,71,0.00,,,0.00,0.000000,,2013-02-16 13:21:00,
2013-02-16 06:31:00,21.0,13.0,-100.00,East,95,4.0,8.0,71,0.00,,,0.00,0.000000,,2013-02-16 13:31:00,
2013-02-16 06:41:00,21.0,13.0,-100.00,East,95,4.0,8.0,71,0.00,,,0.00,0.000000,,2013-02-16 13:41:00,
2013-02-16 06:51:00,21.0,13.0,-100.00,East,95,4.0,8.0,71,0.00,,,0.00,0.000000,,2013-02-16 13:51:00,
2013-02-16 07:21:00,20.0,10.0,-100.00,ESE,111,4.0,8.0,64,0.00,,,0.00,0.000000,,2013-02-16 14:21:00,
2013-02-16 07:32:00,20.0,10.0,-100.00,ESE,111,4.0,8.0,64,0.00,,,0.00,0.000000,,2013-02-16 14:32:00,
2013-02-16 07:41:00,20.0,10.0,-100.00,ESE,111,4.0,8.0,64,0.00,,,0.00,0.000000,,2013-02-16 14:41:00,
2013-02-16 07:52:00,20.0,10.0,-100.00,ESE,111,4.0,8.0,64,0.00,,,0.00,0.000000,,2013-02-16 14:52:00,
2013-02-16 08:21:00,20.0,7.0,-100.00,East,89,1.0,7.0,57,0.00,,,0.00,0.000000,,2013-02-16 15:21:00,
2013-02-16 08:31:00,20.0,7.0,-100.00,East,89,1.0,7.0,57,0.00,,,0.00,0.000000,,2013-02-16 15:31:00,
2013-02-16 08:41:00,20.0,7.0,-100.00,East,89,1.0,7.0,57,0.00,,,0.00,0.000000,,2013-02-16 15:41:00,
2013-02-16 08:51:00,20.0,7.0,-100.00,East,89,1.0,7.0,57,0.00,,,0.00,0.000000,,2013-02-16 15:51:00,
2013-02-16 09:21:00,25.0,8.0,-100.00,East,89,3.0,4.0,48,0.00,,,0.00,64.000000,,2013-02-16 16:21:00,
2013-02-16 09:32:00,25.0,8.0,-100.00,East,89,3.0,4.0,48,0.00,,,0.00,64.000000,,2013-02-16 16:32:00,
2013-02-16 09:41:00,25.0,8.0,-100.00,East,89,3.0,4.0,48,0.00,,,0.00,64.000000,,2013-02-16 16:41:00,
2013-02-16 09:51:00,25.0,8.0,-100.00,East,89,3.0,4.0,48,0.00,,,0.00,64.000000,,2013-02-16 16:51:00,
2013-02-16 10:21:00,30.0,9.0,-100.00,South,174,1.0,6.0,41,0.00,,,-99.99,276.000000,,2013-02-16 17:21:00,
2013-02-16 10:32:00,30.0,9.0,-100.00,South,174,1.0,6.0,41,0.00,,,-99.99,276.000000,,2013-02-16 17:32:00,
2013-02-16 10:41:00,30.0,9.0,-100.00,South,174,1.0,6.0,41,0.00,,,-99.99,276.000000,,2013-02-16 17:41:00,
2013-02-16 10:52:00,30.0,9.0,-100.00,South,174,1.0,6.0,41,0.00,,,-99.99,276.000000,,2013-02-16 17:52:00,
2013-02-16 11:21:00,35.0,9.0,-100.00,NNW,329,1.0,6.0,33,0.00,,,0.00,504.000000,,2013-02-16 18:21:00,
2013-02-16 11:33:00,35.0,9.0,-100.00,NNW,329,1.0,6.0,33,0.00,,,0.00,504.000000,,2013-02-16 18:33:00,
2013-02-16 11:42:00,35.0,9.0,-100.00,NNW,329,1.0,6.0,33,0.00,,,0.00,504.000000,,2013-02-16 18:42:00,
2013-02-16 11:51:00,35.0,9.0,-100.00,NNW,329,1.0,6.0,33,0.00,,,0.00,504.000000,,2013-02-16 18:51:00,
2013-02-16 12:21:00,42.0,14.0,-100.00,NW,304,3.0,4.0,31,0.00,,,0.00,685.000000,,2013-02-16 19:21:00,
2013-02-16 12:31:00,42.0,14.0,-100.00,NW,304,3.0,4.0,31,0.00,,,0.00,685.000000,,2013-02-16 19:31:00,
2013-02-16 12:42:00,42.0,14.0,-100.00,NW,304,3.0,4.0,31,0.00,,,0.00,685.000000,,2013-02-16 19:42:00,
2013-02-16 12:52:00,42.0,14.0,-100.00,NW,304,3.0,4.0,31,0.00,,,0.00,685.000000,,2013-02-16 19:52:00,
2013-02-16 13:21:00,44.0,13.0,-100.00,NNW,337,4.0,7.0,28,0.00,,,0.00,819.000000,,2013-02-16 20:21:00,
2013-02-16 13:32:00,44.0,13.0,-100.00,NNW,337,4.0,7.0,28,0.00,,,0.00,819.000000,,2013-02-16 20:32:00,
2013-02-16 13:42:00,44.0,13.0,-100.00,NNW,337,4.0,7.0,28,0.00,,,0.00,819.000000,,2013-02-16 20:42:00,
2013-02-16 13:52:00,44.0,13.0,-100.00,NNW,337,4.0,7.0,28,0.00,,,0.00,819.000000,,2013-02-16 20:52:00,
2013-02-16 14:21:00,46.0,7.0,-100.00,WNW,301,3.0,8.0,20,0.00,,,0.00,863.000000,,2013-02-16 21:21:00,
2013-02-16 14:31:00,46.0,7.0,-100.00,WNW,301,3.0,8.0,20,0.00,,,0.00,863.000000,,2013-02-16 21:31:00,
2013-02-16 14:41:00,46.0,7.0,-100.00,WNW,301,3.0,8.0,20,0.00,,,0.00,863.000000,,2013-02-16 21:41:00,
2013-02-16 14:52:00,46.0,7.0,-100.00,WNW,301,3.0,8.0,20,0.00,,,0.00,863.000000,,2013-02-16 21:52:00,
2013-02-16 15:21:00,52.0,12.0,-100.00,NNW,334,2.0,8.0,20,0.00,,,0.00,831.000000,,2013-02-16 22:21:00,
2013-02-16 15:32:00,52.0,12.0,-100.00,NNW,334,2.0,8.0,20,0.00,,,0.00,831.000000,,2013-02-16 22:32:00,
2013-02-16 15:42:00,52.0,12.0,-100.00,NNW,334,2.0,8.0,20,0.00,,,0.00,831.000000,,2013-02-16 22:42:00,
2013-02-16 15:51:00,52.0,12.0,-100.00,NNW,334,2.0,8.0,20,0.00,,,0.00,831.000000,,2013-02-16 22:51:00,
2013-02-16 16:21:00,51.0,11.0,-100.00,NNE,15,2.0,7.0,20,0.00,,,0.00,723.000000,,2013-02-16 23:21:00,
2013-02-16 16:31:00,51.0,11.0,-100.00,NNE,15,2.0,7.0,20,0.00,,,0.00,723.000000,,2013-02-16 23:31:00,
2013-02-16 16:42:00,51.0,11.0,-100.00,NNE,15,2.0,7.0,20,0.00,,,0.00,723.000000,,2013-02-16 23:42:00,
2013-02-16 16:52:00,51.0,11.0,-100.00,NNE,15,2.0,7.0,20,0.00,,,0.00,723.000000,,2013-02-16 23:52:00,
2013-02-16 17:21:00,53.0,15.0,-100.00,NE,53,2.0,7.0,22,0.00,,,0.00,547.000000,,2013-02-17 00:21:00,
2013-02-16 17:31:00,53.0,15.0,-100.00,NE,53,2.0,7.0,22,0.00,,,0.00,547.000000,,2013-02-17 00:31:00,
2013-02-16 17:41:00,53.0,15.0,-100.00,NE,53,2.0,7.0,22,0.00,,,0.00,547.000000,,2013-02-17 00:41:00,
2013-02-16 17:51:00,53.0,15.0,-100.00,NE,53,2.0,7.0,22,0.00,,,0.00,547.000000,,2013-02-17 00:51:00,
2013-02-16 18:21:00,50.0,17.0,-100.00,NE,47,3.0,6.0,27,0.00,,,0.00,322.000000,,2013-02-17 01:21:00,
2013-02-16 18:31:00,50.0,17.0,-100.00,NE,47,3.0,6.0,27,0.00,,,0.00,322.000000,,2013-02-17 01:31:00,
2013-02-16 18:41:00,50.0,17.0,-100.00,NE,47,3.0,6.0,27,0.00,,,0.00,322.000000,,2013-02-17 01:41:00,
2013-02-16 18:52:00,50.0,17.0,-100.00,NE,47,3.0,6.0,27,0.00,,,0.00,322.000000,,2013-02-17 01:52:00,
2013-02-16 19:21:00,45.0,15.0,-100.00,ESE,104,2.0,4.0,30,0.00,,,0.00,84.000000,,2013-02-17 02:21:00,
2013-02-16 19:31:00,45.0,15.0,-100.00,ESE,104,2.0,4.0,30,0.00,,,0.00,84.000000,,2013-02-17 02:31:00,
2013-02-16 19:41:00,45.0,15.0,-100.00,ESE,104,2.0,4.0,30,0.00,,,0.00,84.000000,,2013-02-17 02:41:00,
2013-02-16 19:52:00,45.0,15.0,-100.00,ESE,104,2.0,4.0,30,0.00,,,0.00,84.000000,,2013-02-17 02:52:00,
2013-02-16 20:11:00,41.0,20.0,-100.00,East,85,6.0,6.0,43,0.00,,,0.00,0.000000,,2013-02-17 03:11:00,
2013-02-16 20:21:00,41.0,20.0,-100.00,East,85,6.0,6.0,43,0.00,,,0.00,0.000000,,2013-02-17 03:21:00,
2013-02-16 20:31:00,41.0,20.0,-100.00,East,85,6.0,6.0,43,0.00,,,0.00,0.000000,,2013-02-17 03:31:00,
2013-02-16 20:42:00,41.0,20.0,-100.00,East,85,6.0,6.0,43,0.00,,,0.00,0.000000,,2013-02-17 03:42:00,
2013-02-16 20:51:00,41.0,20.0,-100.00,East,85,6.0,6.0,43,0.00,,,0.00,0.000000,,2013-02-17 03:51:00,
2013-02-16 21:21:00,36.0,19.0,-100.00,East,93,5.0,10.0,50,-99.99,,,0.00,0.000000,,2013-02-17 04:21:00,
2013-02-16 21:31:00,36.0,19.0,-100.00,East,93,5.0,10.0,50,-99.99,,,0.00,0.000000,,2013-02-17 04:31:00,
2013-02-16 21:41:00,36.0,19.0,-100.00,East,93,5.0,10.0,50,-99.99,,,0.00,0.000000,,2013-02-17 04:41:00,
2013-02-16 21:51:00,36.0,19.0,-100.00,East,93,5.0,10.0,50,-99.99,,,0.00,0.000000,,2013-02-17 04:51:00,
2013-02-16 22:22:00,32.0,18.0,-100.00,ESE,121,4.0,11.0,56,0.00,,,-99.99,0.000000,,2013-02-17 05:22:00,
2013-02-16 22:32:00,32.0,18.0,-100.00,ESE,121,4.0,11.0,56,0.00,,,-99.99,0.000000,,2013-02-17 05:32:00,
2013-02-16 22:42:00,32.0,18.0,-100.00,ESE,121,4.0,11.0,56,0.00,,,-99.99,0.000000,,2013-02-17 05:42:00,
2013-02-16 22:52:00,32.0,18.0,-100.00,ESE,121,4.0,11.0,56,0.00,,,-99.99,0.000000,,2013-02-17 05:52:00,
2013-02-16 23:21:00,30.0,16.0,-100.00,ESE,104,3.0,8.0,55,0.00,,,0.00,0.000000,,2013-02-17 06:21:00,
2013-02-16 23:31:00,30.0,16.0,-100.00,ESE,104,3.0,8.0,55,0.00,,,0.00,0.000000,,2013-02-17 06:31:00,
2013-02-16 23:41:00,30.0,16.0,-100.00,ESE,104,3.0,8.0,55,0.00,,,0.00,0.000000,,2013-02-17 06:41:00,
2013-02-16 23:51:00,30.0,16.0,-100.00,ESE,104,3.0,8.0,55,0.00,,,0.00,0.000000,,2013-02-17 06:51:00,